createdAt,value
2023-02-18T00:00:23.602Z,9.88
2023-02-18T00:02:52.517Z,9.87
2023-02-18T00:05:19.461Z,9.84
2023-02-18T00:07:45.909Z,9.89
2023-02-18T00:10:14.436Z,9.89
2023-02-18T00:12:41.734Z,9.91
2023-02-18T00:15:09.568Z,9.90
2023-02-18T00:17:36.767Z,9.91
2023-02-18T00:20:05.066Z,9.87
2023-02-18T00:22:31.538Z,9.86
2023-02-18T00:24:57.907Z,9.98
2023-02-18T00:27:24.285Z,9.88
2023-02-18T00:29:50.793Z,9.85
2023-02-18T00:32:17.538Z,9.95
2023-02-18T00:34:44.463Z,9.96
2023-02-18T00:37:10.816Z,9.89
2023-02-18T00:39:37.668Z,9.85
2023-02-18T00:42:04.339Z,10.02
2023-02-18T00:44:30.705Z,9.90
2023-02-18T00:46:57.340Z,9.92
2023-02-18T00:49:23.835Z,9.87
2023-02-18T00:51:50.483Z,9.85
2023-02-18T00:54:16.855Z,9.92
2023-02-18T00:56:43.207Z,9.90
2023-02-18T00:59:09.593Z,9.92
2023-02-18T01:01:36.124Z,9.98
2023-02-18T01:04:02.640Z,9.99
2023-02-18T01:06:29.138Z,9.84
2023-02-18T01:08:55.663Z,9.81
2023-02-18T01:11:23.826Z,9.84
2023-02-18T01:13:50.182Z,9.88
2023-02-18T01:16:17.220Z,9.76
2023-02-18T01:18:44.297Z,9.75
2023-02-18T01:21:10.698Z,9.76
2023-02-18T01:23:39.574Z,9.79
2023-02-18T01:26:07.124Z,9.79
2023-02-18T01:28:34.218Z,9.81
2023-02-18T01:31:06.629Z,9.91
2023-02-18T01:33:33.249Z,9.80
2023-02-18T01:35:59.620Z,9.89
2023-02-18T01:38:26.157Z,9.77
2023-02-18T01:40:53.364Z,9.93
2023-02-18T01:43:20.527Z,9.87
2023-02-18T01:45:50.970Z,9.84
2023-02-18T01:48:19.891Z,9.81
2023-02-18T01:51:09.056Z,9.85
2023-02-18T01:53:42.604Z,9.94
2023-02-18T01:56:19.088Z,9.89
2023-02-18T01:58:45.620Z,9.83
2023-02-18T02:03:41.372Z,9.86
2023-02-18T02:06:16.998Z,9.84
2023-02-18T02:08:45.726Z,9.95
2023-02-18T02:11:21.932Z,9.89
2023-02-18T02:14:09.111Z,9.89
2023-02-18T02:16:50.114Z,9.90
2023-02-18T02:19:38.291Z,9.80
2023-02-18T02:22:23.657Z,9.77
2023-02-18T02:25:08.658Z,9.66
2023-02-18T02:28:08.871Z,9.68
2023-02-18T02:31:12.677Z,9.63
2023-02-18T02:34:13.281Z,9.62
2023-02-18T02:37:00.435Z,9.69
2023-02-18T02:39:42.329Z,9.64
2023-02-18T02:42:26.773Z,9.63
2023-02-18T02:45:11.172Z,9.52
2023-02-18T02:47:49.982Z,9.65
2023-02-18T02:50:23.382Z,9.53
2023-02-18T02:53:00.096Z,9.47
2023-02-18T02:55:26.980Z,9.46
2023-02-18T02:57:55.818Z,9.48
2023-02-18T03:00:59.606Z,9.49
2023-02-18T03:04:00.672Z,9.46
2023-02-18T03:06:43.401Z,9.42
2023-02-18T03:09:27.143Z,9.38
2023-02-18T03:12:12.335Z,9.47
2023-02-18T03:14:49.694Z,9.51
2023-02-18T03:17:27.999Z,9.49
2023-02-18T03:20:26.628Z,9.51
2023-02-18T03:22:55.995Z,9.48
2023-02-18T03:25:24.243Z,9.43
2023-02-18T03:27:58.731Z,9.48
2023-02-18T03:30:41.005Z,9.53
2023-02-18T03:33:11.640Z,9.49
2023-02-18T03:35:38.957Z,9.50
2023-02-18T03:38:27.060Z,9.56
2023-02-18T03:40:53.712Z,9.54
2023-02-18T03:43:20.181Z,9.56
2023-02-18T03:45:46.754Z,9.52
2023-02-18T03:48:13.347Z,9.54
2023-02-18T03:50:39.745Z,9.54
2023-02-18T03:53:06.473Z,9.61
2023-02-18T03:55:32.980Z,9.68
2023-02-18T03:57:59.491Z,9.73
2023-02-18T04:00:26.236Z,9.66
2023-02-18T04:02:54.794Z,9.71
2023-02-18T04:05:21.199Z,9.65
2023-02-18T04:07:47.968Z,9.75
2023-02-18T04:10:14.439Z,9.61
2023-02-18T04:12:40.991Z,9.58
2023-02-18T04:15:07.764Z,9.50
2023-02-18T04:17:34.875Z,9.52
2023-02-18T04:20:01.329Z,9.49
2023-02-18T04:22:27.849Z,9.47
2023-02-18T04:24:54.272Z,9.46
2023-02-18T04:27:20.854Z,9.46
2023-02-18T04:29:47.456Z,9.53
2023-02-18T04:32:13.975Z,9.55
2023-02-18T04:34:40.782Z,9.62
2023-02-18T04:37:07.313Z,9.57
2023-02-18T04:39:34.014Z,9.60
2023-02-18T04:42:00.616Z,9.61
2023-02-18T04:44:27.576Z,9.69
2023-02-18T04:46:53.973Z,9.80
2023-02-18T04:49:20.585Z,9.82
2023-02-18T04:51:46.985Z,9.89
2023-02-18T04:54:13.537Z,9.81
2023-02-18T04:56:39.935Z,9.85
2023-02-18T04:59:06.566Z,9.76
2023-02-18T05:01:34.697Z,9.73
2023-02-18T05:04:01.947Z,9.70
2023-02-18T05:06:28.407Z,9.65
2023-02-18T05:08:54.909Z,9.66
2023-02-18T05:11:21.712Z,9.71
2023-02-18T05:13:48.218Z,9.73
2023-02-18T05:16:14.833Z,9.79
2023-02-18T05:18:41.738Z,9.79
2023-02-18T05:21:08.309Z,9.75
2023-02-18T05:23:34.846Z,9.75
2023-02-18T05:26:01.281Z,9.74
2023-02-18T05:28:27.884Z,9.68
2023-02-18T05:30:55.220Z,9.70
2023-02-18T05:33:21.748Z,9.70
2023-02-18T05:35:48.855Z,9.70
2023-02-18T05:38:15.252Z,9.66
2023-02-18T05:40:41.787Z,9.68
2023-02-18T05:43:08.490Z,9.71
2023-02-18T05:45:35.739Z,9.74
2023-02-18T05:48:02.497Z,9.70
2023-02-18T05:50:29.580Z,9.75
2023-02-18T05:52:56.021Z,9.72
2023-02-18T05:55:23.417Z,9.72
2023-02-18T05:57:50.258Z,9.69
2023-02-18T06:00:17.741Z,9.73
2023-02-18T06:02:44.394Z,9.71
2023-02-18T06:05:11.191Z,9.66
2023-02-18T06:07:38.168Z,9.63
2023-02-18T06:10:05.861Z,9.65
2023-02-18T06:12:32.337Z,9.63
2023-02-18T06:14:58.803Z,9.67
2023-02-18T06:17:25.206Z,9.72
2023-02-18T06:19:51.770Z,9.69
2023-02-18T06:22:18.294Z,9.72
2023-02-18T06:24:44.783Z,9.66
2023-02-18T06:27:11.348Z,9.65
2023-02-18T06:29:38.362Z,9.62
2023-02-18T06:32:05.096Z,9.71
2023-02-18T06:34:31.834Z,9.71
2023-02-18T06:37:01.026Z,9.71
2023-02-18T06:39:29.107Z,9.73
2023-02-18T06:41:55.502Z,9.73
2023-02-18T06:44:21.908Z,9.67
2023-02-18T06:46:48.822Z,9.62
2023-02-18T06:49:15.259Z,9.73
2023-02-18T06:51:41.697Z,9.71
2023-02-18T06:54:08.154Z,9.74
2023-02-18T06:56:34.921Z,9.69
2023-02-18T06:59:01.387Z,9.70
2023-02-18T07:01:28.340Z,9.72
2023-02-18T07:03:54.790Z,9.71
2023-02-18T07:06:21.546Z,9.74
2023-02-18T07:08:48.198Z,9.77
2023-02-18T07:11:14.886Z,9.76
2023-02-18T07:13:41.348Z,9.72
2023-02-18T07:16:08.127Z,9.79
2023-02-18T07:18:34.891Z,9.76
2023-02-18T07:21:01.854Z,9.75
2023-02-18T07:23:28.349Z,9.68
2023-02-18T07:26:03.752Z,9.80
2023-02-18T07:28:30.418Z,9.77
2023-02-18T07:30:58.001Z,9.81
2023-02-18T07:33:24.849Z,9.79
2023-02-18T07:35:58.908Z,9.81
2023-02-18T07:38:26.521Z,9.79
2023-02-18T07:40:53.913Z,9.88
2023-02-18T07:43:23.101Z,9.88
2023-02-18T07:45:49.746Z,9.87
2023-02-18T07:48:16.765Z,9.84
2023-02-18T07:50:45.374Z,9.92
2023-02-18T07:53:15.316Z,9.88
2023-02-18T07:55:51.095Z,9.93
2023-02-18T07:58:32.330Z,9.93
2023-02-18T08:00:59.487Z,9.91
2023-02-18T08:03:31.203Z,10.01
2023-02-18T08:05:58.503Z,9.99
2023-02-18T08:08:27.371Z,10.00
2023-02-18T08:10:56.245Z,10.11
2023-02-18T08:13:22.874Z,10.06
2023-02-18T08:15:49.646Z,10.06
2023-02-18T08:18:18.845Z,10.00
2023-02-18T08:20:49.895Z,10.03
2023-02-18T08:23:19.117Z,10.05
2023-02-18T08:25:48.751Z,10.04
2023-02-18T08:28:21.694Z,9.97
2023-02-18T08:30:50.605Z,10.00
2023-02-18T08:33:18.513Z,9.99
2023-02-18T08:35:46.572Z,9.95
2023-02-18T08:38:13.167Z,9.90
2023-02-18T08:40:40.972Z,9.97
2023-02-18T08:43:07.468Z,9.91
2023-02-18T08:45:36.054Z,9.96
2023-02-18T08:48:17.011Z,9.96
2023-02-18T08:50:47.104Z,9.94
2023-02-18T08:53:16.077Z,9.91
2023-02-18T08:55:43.091Z,9.90
2023-02-18T08:58:09.643Z,9.86
2023-02-18T09:00:37.394Z,9.83
2023-02-18T09:03:04.214Z,9.77
2023-02-18T09:05:30.944Z,9.73
2023-02-18T09:07:57.734Z,9.57
2023-02-18T09:10:24.765Z,9.50
2023-02-18T09:12:51.630Z,9.44
2023-02-18T09:15:18.673Z,9.27
2023-02-18T09:17:45.130Z,9.32
2023-02-18T09:20:11.766Z,9.16
2023-02-18T09:22:38.152Z,9.00
2023-02-18T09:25:05.402Z,9.03
2023-02-18T09:27:31.784Z,8.91
2023-02-18T09:29:58.259Z,8.80
2023-02-18T09:32:34.410Z,8.80
2023-02-18T09:35:02.643Z,8.90
2023-02-18T09:37:29.564Z,9.01
2023-02-18T09:39:56.155Z,9.08
2023-02-18T09:42:30.945Z,9.00
2023-02-18T09:45:01.894Z,9.11
2023-02-18T09:47:40.657Z,9.13
2023-02-18T09:50:13.908Z,9.08
2023-02-18T09:52:40.506Z,9.04
2023-02-18T09:55:24.103Z,8.98
2023-02-18T09:57:53.912Z,9.00
2023-02-18T10:00:32.312Z,8.98
2023-02-18T10:03:07.154Z,9.05
2023-02-18T10:05:34.955Z,9.08
2023-02-18T10:08:05.841Z,9.11
2023-02-18T10:10:45.279Z,9.09
2023-02-18T10:13:33.514Z,9.11
2023-02-18T10:16:00.351Z,9.21
2023-02-18T10:18:38.680Z,9.27
2023-02-18T10:21:15.358Z,9.29
2023-02-18T10:23:51.853Z,9.23
2023-02-18T10:26:19.504Z,9.32
2023-02-18T10:28:47.477Z,9.18
2023-02-18T10:31:20.345Z,9.22
2023-02-18T10:34:19.479Z,9.23
2023-02-18T10:36:51.437Z,9.23
2023-02-18T10:39:42.133Z,9.29
2023-02-18T10:42:28.494Z,9.26
2023-02-18T10:45:17.106Z,9.18
2023-02-18T10:47:54.154Z,9.34
2023-02-18T10:50:39.742Z,9.33
2023-02-18T10:53:12.282Z,9.39
2023-02-18T10:55:42.518Z,9.47
2023-02-18T10:58:31.245Z,9.51
2023-02-18T11:00:59.298Z,9.56
2023-02-18T11:03:49.651Z,9.54
2023-02-18T11:06:27.599Z,9.43
2023-02-18T11:08:56.815Z,9.44
2023-02-18T11:11:29.020Z,9.56
2023-02-18T11:13:58.306Z,9.54
2023-02-18T11:16:40.770Z,9.55
2023-02-18T11:19:35.386Z,9.56
2023-02-18T11:22:23.780Z,9.62
2023-02-18T11:25:01.944Z,9.70
2023-02-18T11:27:38.407Z,9.65
2023-02-18T11:30:37.899Z,9.69
2023-02-18T11:33:16.164Z,9.64
2023-02-18T11:35:51.153Z,9.64
2023-02-18T11:38:26.240Z,9.53
2023-02-18T11:41:01.704Z,9.52
2023-02-18T11:43:31.135Z,9.42
2023-02-18T11:46:16.693Z,9.41
2023-02-18T11:48:43.390Z,9.38
2023-02-18T11:51:24.594Z,9.49
2023-02-18T11:54:18.166Z,9.56
2023-02-18T11:57:05.242Z,9.71
2023-02-18T11:59:37.655Z,9.74
2023-02-18T12:02:10.467Z,9.79
2023-02-18T12:04:48.610Z,9.83
2023-02-18T12:07:25.040Z,9.73
2023-02-18T12:09:56.169Z,9.58
2023-02-18T12:12:33.413Z,9.63
2023-02-18T12:15:00.601Z,9.48
2023-02-18T12:17:33.301Z,9.51
2023-02-18T12:20:18.897Z,9.49
2023-02-18T12:22:50.817Z,9.43
2023-02-18T12:25:58.587Z,9.41
2023-02-18T12:28:37.259Z,9.42
2023-02-18T12:31:22.823Z,9.39
2023-02-18T12:34:10.235Z,9.33
2023-02-18T12:36:55.307Z,9.33
2023-02-18T12:39:33.472Z,9.25
2023-02-18T12:42:35.671Z,9.23
2023-02-18T12:45:07.948Z,9.27
2023-02-18T12:48:05.230Z,9.34
2023-02-18T12:50:50.668Z,9.41
2023-02-18T12:53:46.872Z,9.37
2023-02-18T12:56:36.996Z,9.44
2023-02-18T12:59:22.077Z,9.43
2023-02-18T13:02:05.206Z,9.45
2023-02-18T13:04:38.365Z,9.43
2023-02-18T13:07:26.205Z,9.43
2023-02-18T13:10:18.910Z,9.37
2023-02-18T13:13:16.665Z,9.45
2023-02-18T13:15:55.798Z,9.48
2023-02-18T13:18:36.569Z,9.60
2023-02-18T13:21:30.953Z,9.64
2023-02-18T13:24:02.461Z,9.66
2023-02-18T13:26:34.514Z,9.58
2023-02-18T13:29:10.128Z,9.62
2023-02-18T13:31:51.541Z,9.60
2023-02-18T13:34:40.459Z,9.55
2023-02-18T13:37:13.605Z,9.54
2023-02-18T13:39:50.170Z,9.53
2023-02-18T13:42:16.551Z,9.58
2023-02-18T13:44:55.792Z,9.52
2023-02-18T13:47:43.758Z,9.70
2023-02-18T13:50:22.521Z,9.70
2023-02-18T13:52:50.064Z,9.78
2023-02-18T13:55:23.846Z,9.75
2023-02-18T13:57:55.141Z,9.87
2023-02-18T14:00:25.637Z,9.87
2023-02-18T14:02:58.791Z,9.82
2023-02-18T14:05:39.928Z,9.68
2023-02-18T14:08:16.011Z,9.74
2023-02-18T14:10:42.655Z,9.82
2023-02-18T14:13:18.487Z,9.72
2023-02-18T14:15:57.853Z,9.72
2023-02-18T14:18:32.495Z,9.68
2023-02-18T14:21:41.975Z,9.66
2023-02-18T14:24:11.491Z,9.61
2023-02-18T14:26:43.554Z,9.63
2023-02-18T14:29:27.770Z,9.60
2023-02-18T14:32:00.300Z,9.54
2023-02-18T14:34:39.783Z,9.55
2023-02-18T14:37:12.116Z,9.52
2023-02-18T14:39:54.383Z,9.54
2023-02-18T14:42:39.580Z,9.56
2023-02-18T14:45:19.355Z,9.60
2023-02-18T14:48:11.543Z,9.54
2023-02-18T14:50:44.417Z,9.51
2023-02-18T14:53:18.587Z,9.61
2023-02-18T14:55:55.277Z,9.56
2023-02-18T14:58:27.961Z,9.46
2023-02-18T15:00:54.606Z,9.43
2023-02-18T15:03:22.554Z,9.43
2023-02-18T15:05:53.314Z,9.44
2023-02-18T15:08:26.761Z,9.48
2023-02-18T15:11:08.336Z,9.49
2023-02-18T15:13:45.455Z,9.40
2023-02-18T15:16:31.761Z,9.49
2023-02-18T15:19:15.140Z,9.43
2023-02-18T15:21:44.584Z,9.37
2023-02-18T15:24:26.905Z,9.47
2023-02-18T15:26:57.224Z,9.43
2023-02-18T15:29:27.453Z,9.46
2023-02-18T15:31:58.082Z,9.43
2023-02-18T15:34:37.877Z,9.49
2023-02-18T15:37:13.794Z,9.41
2023-02-18T15:39:41.819Z,9.42
2023-02-18T15:42:30.107Z,9.35
2023-02-18T15:45:04.875Z,9.34
2023-02-18T15:47:32.907Z,9.39
2023-02-18T15:50:02.876Z,9.36
2023-02-18T15:52:37.761Z,9.41
2023-02-18T15:55:11.847Z,9.45
2023-02-18T15:57:40.223Z,9.39
2023-02-18T16:00:13.848Z,9.45
2023-02-18T16:02:55.643Z,9.47
2023-02-18T16:05:26.544Z,9.43
2023-02-18T16:07:58.208Z,9.54
2023-02-18T16:10:40.759Z,9.49
2023-02-18T16:13:07.190Z,9.47
2023-02-18T16:15:40.564Z,9.48
2023-02-18T16:18:07.591Z,9.36
2023-02-18T16:20:37.627Z,9.32
2023-02-18T16:23:11.391Z,9.38
2023-02-18T16:25:48.671Z,9.40
2023-02-18T16:28:35.574Z,9.38
2023-02-18T16:31:02.010Z,9.31
2023-02-18T16:33:28.626Z,9.31
2023-02-18T16:35:57.608Z,9.36
2023-02-18T16:38:25.327Z,9.45
2023-02-18T16:40:54.298Z,9.34
2023-02-18T16:43:23.436Z,9.40
2023-02-18T16:45:56.324Z,9.30
2023-02-18T16:48:44.099Z,9.39
2023-02-18T16:51:26.111Z,9.35
2023-02-18T16:53:52.609Z,9.29
2023-02-18T16:56:23.148Z,9.31
2023-02-18T16:58:50.875Z,9.41
2023-02-18T17:01:28.649Z,9.35
2023-02-18T17:03:56.661Z,9.34
2023-02-18T17:06:23.240Z,9.32
2023-02-18T17:08:49.987Z,9.35
2023-02-18T17:11:23.742Z,9.35
2023-02-18T17:13:50.590Z,9.24
2023-02-18T17:16:17.833Z,9.28
2023-02-18T17:18:44.776Z,9.32
2023-02-18T17:21:16.259Z,9.37
2023-02-18T17:23:43.114Z,9.38
2023-02-18T17:26:21.276Z,9.42
2023-02-18T17:28:47.800Z,9.34
2023-02-18T17:31:21.646Z,9.33
2023-02-18T17:33:48.303Z,9.37
2023-02-18T17:36:15.204Z,9.34
2023-02-18T17:38:41.863Z,9.34
2023-02-18T17:41:08.335Z,9.28
2023-02-18T17:43:35.252Z,9.35
2023-02-18T17:46:02.000Z,9.27
2023-02-18T17:48:29.632Z,9.24
2023-02-18T17:50:56.694Z,9.35
2023-02-18T17:53:23.610Z,9.33
2023-02-18T17:55:51.061Z,9.34
2023-02-18T17:58:18.139Z,9.26
2023-02-18T18:00:55.821Z,9.27
2023-02-18T18:03:23.078Z,9.27
2023-02-18T18:05:56.454Z,9.19
2023-02-18T18:08:23.589Z,9.23
2023-02-18T18:10:55.309Z,9.24
2023-02-18T18:13:32.282Z,9.24
2023-02-18T18:15:59.075Z,9.22
2023-02-18T18:18:27.273Z,9.16
2023-02-18T18:20:58.388Z,9.22
2023-02-18T18:23:24.853Z,9.21
2023-02-18T18:25:56.402Z,9.19
2023-02-18T18:28:23.813Z,9.18
2023-02-18T18:30:52.759Z,9.17
2023-02-18T18:33:34.015Z,9.19
2023-02-18T18:36:01.431Z,9.20
2023-02-18T18:38:29.256Z,9.26
2023-02-18T18:40:56.130Z,9.24
2023-02-18T18:43:33.104Z,9.22
2023-02-18T18:46:00.208Z,9.33
2023-02-18T18:48:27.323Z,9.27
2023-02-18T18:50:53.915Z,9.36
2023-02-18T18:53:22.513Z,9.25
2023-02-18T18:55:50.704Z,9.23
2023-02-18T18:58:21.019Z,9.29
2023-02-18T19:00:50.839Z,9.28
2023-02-18T19:03:18.230Z,9.32
2023-02-18T19:05:46.380Z,9.32
2023-02-18T19:08:15.275Z,9.23
2023-02-18T19:10:43.868Z,9.27
2023-02-18T19:13:17.681Z,9.27
2023-02-18T19:15:44.953Z,9.24
2023-02-18T19:18:14.212Z,9.25
2023-02-18T19:20:42.995Z,9.16
2023-02-18T19:23:10.178Z,9.12
2023-02-18T19:25:37.801Z,9.13
2023-02-18T19:28:04.942Z,9.06
2023-02-18T19:30:35.636Z,9.05
2023-02-18T19:33:05.719Z,9.04
2023-02-18T19:35:33.239Z,9.03
2023-02-18T19:38:00.401Z,9.06
2023-02-18T19:40:29.858Z,8.97
2023-02-18T19:42:57.084Z,8.99
2023-02-18T19:45:24.453Z,8.92
2023-02-18T19:47:56.094Z,8.99
2023-02-18T19:50:23.562Z,8.90
2023-02-18T19:52:54.482Z,8.96
2023-02-18T19:55:21.965Z,9.00
2023-02-18T19:57:49.579Z,9.01
2023-02-18T20:00:18.160Z,9.07
2023-02-18T20:02:45.791Z,9.08
2023-02-18T20:05:13.273Z,9.00
2023-02-18T20:07:41.748Z,9.01
2023-02-18T20:10:12.354Z,9.09
2023-02-18T20:12:39.084Z,9.14
2023-02-18T20:15:05.886Z,9.14
2023-02-18T20:17:32.968Z,9.16
2023-02-18T20:19:59.908Z,9.16
2023-02-18T20:22:26.512Z,9.17
2023-02-18T20:24:53.490Z,9.19
2023-02-18T20:27:19.934Z,9.17
2023-02-18T20:29:47.889Z,9.20
2023-02-18T20:32:17.070Z,9.29
2023-02-18T20:34:45.022Z,9.26
2023-02-18T20:37:11.666Z,9.19
2023-02-18T20:39:38.059Z,9.23
2023-02-18T20:42:15.476Z,9.15
2023-02-18T20:44:43.577Z,9.09
2023-02-18T20:47:10.247Z,9.06
2023-02-18T20:49:37.432Z,9.10
2023-02-18T20:52:04.099Z,9.10
2023-02-18T20:54:31.038Z,9.13
2023-02-18T20:56:57.516Z,9.10
2023-02-18T20:59:25.938Z,9.18
2023-02-18T21:01:52.460Z,9.11
2023-02-18T21:04:19.869Z,9.11
2023-02-18T21:06:47.217Z,9.05
2023-02-18T21:09:15.530Z,9.04
2023-02-18T21:11:42.881Z,9.05
2023-02-18T21:14:09.427Z,9.01
2023-02-18T21:16:39.405Z,8.95
2023-02-18T21:19:08.242Z,9.03
2023-02-18T21:21:35.989Z,8.93
2023-02-18T21:24:02.821Z,8.99
2023-02-18T21:26:30.057Z,8.88
2023-02-18T21:29:00.742Z,8.93
2023-02-18T21:31:30.525Z,8.96
2023-02-18T21:33:57.439Z,8.91
2023-02-18T21:36:24.498Z,8.94
2023-02-18T21:38:53.031Z,8.93
2023-02-18T21:41:20.028Z,8.92
2023-02-18T21:43:47.706Z,8.94
2023-02-18T21:46:25.760Z,8.91
2023-02-18T21:49:09.281Z,8.91
2023-02-18T21:52:01.859Z,8.84
2023-02-18T21:54:34.021Z,8.92
2023-02-18T21:57:03.729Z,8.87
2023-02-18T21:59:32.108Z,8.93
2023-02-18T22:02:00.761Z,8.91
2023-02-18T22:04:31.909Z,8.96
2023-02-18T22:06:58.754Z,8.93
2023-02-18T22:09:25.645Z,8.93
2023-02-18T22:11:52.291Z,8.95
2023-02-18T22:14:18.810Z,8.95
2023-02-18T22:16:45.749Z,8.98
2023-02-18T22:19:15.517Z,8.98
2023-02-18T22:21:47.762Z,9.01
2023-02-18T22:24:15.806Z,8.96
2023-02-18T22:26:43.933Z,8.92
2023-02-18T22:29:12.962Z,8.91
2023-02-18T22:31:39.910Z,8.88
2023-02-18T22:34:06.510Z,8.91
2023-02-18T22:36:33.848Z,8.79
2023-02-18T22:39:00.535Z,8.83
2023-02-18T22:41:29.809Z,8.84
2023-02-18T22:43:58.156Z,8.87
2023-02-18T22:46:25.283Z,8.75
2023-02-18T22:48:52.396Z,8.79
2023-02-18T22:51:24.858Z,8.75
2023-02-18T22:53:53.456Z,8.77
2023-02-18T22:56:20.963Z,8.81
2023-02-18T22:58:49.861Z,8.81
2023-02-18T23:01:23.944Z,8.85
2023-02-18T23:03:52.387Z,8.83
2023-02-18T23:06:20.256Z,8.79
2023-02-18T23:08:48.041Z,8.79
2023-02-18T23:11:19.817Z,8.79
2023-02-18T23:14:05.663Z,8.77
2023-02-18T23:16:32.753Z,8.77
2023-02-18T23:18:59.437Z,8.80
2023-02-18T23:21:25.814Z,8.76
2023-02-18T23:23:54.880Z,8.78
2023-02-18T23:26:24.859Z,8.85
2023-02-18T23:28:52.653Z,8.83
2023-02-18T23:31:25.170Z,8.75
2023-02-18T23:33:57.529Z,8.79
2023-02-18T23:36:29.638Z,8.80
2023-02-18T23:38:58.816Z,8.85
2023-02-18T23:41:26.653Z,8.86
2023-02-18T23:43:53.591Z,8.82
2023-02-18T23:46:24.606Z,8.84
2023-02-18T23:48:54.198Z,8.77
2023-02-18T23:51:23.234Z,8.79
2023-02-18T23:53:50.627Z,8.87
2023-02-18T23:56:27.633Z,8.87
2023-02-18T23:58:57.307Z,8.83
